createdAt,value
2023-04-02T00:01:28.171Z,12.50
2023-04-02T00:04:14.815Z,12.20
2023-04-02T00:06:47.250Z,11.40
2023-04-02T00:09:33.563Z,10.70
2023-04-02T00:12:18.636Z,11.50
2023-04-02T00:14:55.108Z,11.20
2023-04-02T00:17:27.909Z,11.70
2023-04-02T00:20:06.837Z,12.60
2023-04-02T00:22:46.657Z,12.40
2023-04-02T00:25:19.069Z,12.80
2023-04-02T00:27:51.425Z,13.80
2023-04-02T00:30:24.011Z,13.20
2023-04-02T00:32:57.198Z,13.40
2023-04-02T00:35:30.586Z,14.20
2023-04-02T00:38:03.353Z,16.10
2023-04-02T00:40:35.446Z,16.80
2023-04-02T00:43:16.653Z,15.80
2023-04-02T00:45:55.086Z,16.00
2023-04-02T00:48:44.810Z,16.20
2023-04-02T00:51:24.755Z,17.00
2023-04-02T00:53:59.252Z,16.90
2023-04-02T00:56:38.847Z,15.50
2023-04-02T00:59:21.236Z,15.90
2023-04-02T01:02:01.870Z,17.00
2023-04-02T01:04:36.695Z,16.70
2023-04-02T01:07:12.494Z,15.70
2023-04-02T01:10:06.174Z,18.80
2023-04-02T01:12:49.939Z,19.60
2023-04-02T01:15:26.900Z,17.20
2023-04-02T01:18:19.770Z,18.00
2023-04-02T01:21:15.136Z,18.60
2023-04-02T01:23:58.850Z,16.90
2023-04-02T01:26:45.894Z,16.20
2023-04-02T01:29:21.541Z,16.40
2023-04-02T01:31:57.185Z,17.90
2023-04-02T01:34:30.074Z,17.60
2023-04-02T01:37:11.573Z,17.60
2023-04-02T01:39:57.824Z,15.70
2023-04-02T01:42:39.007Z,17.10
2023-04-02T01:45:14.617Z,18.50
2023-04-02T01:47:48.008Z,18.30
2023-04-02T01:50:32.272Z,18.10
2023-04-02T01:53:07.675Z,18.70
2023-04-02T01:58:19.716Z,17.80
2023-04-02T02:00:58.190Z,18.20
2023-04-02T02:03:31.310Z,19.10
2023-04-02T02:06:07.126Z,19.90
2023-04-02T02:08:46.923Z,18.60
2023-04-02T02:11:21.655Z,19.00
2023-04-02T02:13:57.933Z,17.60
2023-04-02T02:16:32.136Z,17.80
2023-04-02T02:19:06.130Z,19.20
2023-04-02T02:21:44.847Z,18.40
2023-04-02T02:24:24.750Z,19.80
2023-04-02T02:27:10.438Z,18.90
2023-04-02T02:29:47.219Z,18.40
2023-04-02T02:32:22.302Z,16.90
2023-04-02T02:35:02.163Z,17.50
2023-04-02T02:37:40.790Z,17.20
2023-04-02T02:40:19.699Z,17.40
2023-04-02T02:42:58.256Z,18.20
2023-04-02T02:45:35.367Z,16.90
2023-04-02T02:48:13.151Z,18.80
2023-04-02T02:50:46.306Z,17.60
2023-04-02T02:53:23.800Z,18.30
2023-04-02T02:56:02.309Z,17.60
2023-04-02T02:58:41.127Z,18.40
2023-04-02T03:01:29.153Z,18.50
2023-04-02T03:04:03.132Z,18.20
2023-04-02T03:06:36.803Z,18.30
2023-04-02T03:09:19.764Z,17.80
2023-04-02T03:11:59.355Z,17.10
2023-04-02T03:14:36.774Z,16.40
2023-04-02T03:17:17.357Z,14.80
2023-04-02T03:19:55.120Z,15.30
2023-04-02T03:22:35.519Z,15.50
2023-04-02T03:25:18.085Z,13.90
2023-04-02T03:27:53.028Z,15.10
2023-04-02T03:30:36.050Z,15.20
2023-04-02T03:33:14.398Z,15.80
2023-04-02T03:35:54.870Z,16.30
2023-04-02T03:38:32.243Z,15.20
2023-04-02T03:41:11.434Z,16.20
2023-04-02T03:43:48.012Z,14.60
2023-04-02T03:49:02.405Z,13.90
2023-04-02T03:51:39.306Z,12.50
2023-04-02T03:54:17.374Z,13.60
2023-04-02T03:56:50.611Z,12.20
2023-04-02T03:59:36.555Z,11.90
2023-04-02T04:02:28.344Z,10.90
2023-04-02T04:05:02.270Z,9.70
2023-04-02T04:07:39.889Z,10.50
2023-04-02T04:10:21.998Z,9.20
2023-04-02T04:12:56.458Z,9.90
2023-04-02T04:15:34.442Z,9.30
2023-04-02T04:18:13.867Z,7.00
2023-04-02T04:20:56.646Z,7.10
2023-04-02T04:23:36.060Z,6.40
2023-04-02T04:28:50.694Z,6.90
2023-04-02T04:31:30.956Z,7.40
2023-04-02T04:34:12.996Z,5.50
2023-04-02T04:36:54.695Z,5.80
2023-04-02T04:39:42.217Z,6.10
2023-04-02T04:42:21.009Z,5.80
2023-04-02T04:45:00.504Z,5.80
2023-04-02T04:47:37.233Z,4.70
2023-04-02T04:50:15.052Z,4.40
2023-04-02T04:52:47.202Z,4.80
2023-04-02T04:55:29.730Z,4.40
2023-04-02T04:58:17.033Z,4.10
2023-04-02T05:01:00.572Z,4.30
2023-04-02T05:03:39.272Z,5.00
2023-04-02T05:06:18.953Z,5.10
2023-04-02T05:08:53.876Z,5.00
2023-04-02T05:11:33.447Z,4.50
2023-04-02T05:14:12.628Z,5.60
2023-04-02T05:16:52.507Z,5.80
2023-04-02T05:19:31.152Z,4.90
2023-04-02T05:22:14.447Z,5.50
2023-04-02T05:25:00.871Z,5.00
2023-04-02T05:27:39.562Z,4.50
2023-04-02T05:30:36.534Z,4.60
2023-04-02T05:33:21.291Z,4.40
2023-04-02T05:36:01.793Z,4.00
2023-04-02T05:38:39.173Z,10.40
2023-04-02T05:41:22.734Z,22.70
2023-04-02T05:44:03.941Z,12.40
2023-04-02T05:46:43.621Z,13.40
2023-04-02T05:49:24.461Z,10.40
2023-04-02T05:52:02.031Z,29.00
2023-04-02T05:54:39.764Z,10.20
2023-04-02T05:57:16.735Z,9.40
2023-04-02T05:59:54.335Z,5.50
2023-04-02T06:02:32.840Z,7.90
2023-04-02T06:05:12.732Z,7.10
2023-04-02T06:07:47.814Z,8.20
2023-04-02T06:10:24.905Z,8.10
2023-04-02T06:13:03.588Z,12.20
2023-04-02T06:15:40.218Z,7.80
2023-04-02T06:18:21.915Z,14.50
2023-04-02T06:20:55.493Z,9.60
2023-04-02T06:23:33.497Z,5.40
2023-04-02T06:26:14.270Z,7.60
2023-04-02T06:28:49.272Z,8.10
2023-04-02T06:31:30.093Z,7.40
2023-04-02T06:34:02.882Z,12.80
2023-04-02T06:36:37.714Z,7.50
2023-04-02T06:39:19.673Z,4.50
2023-04-02T06:42:01.012Z,5.70
2023-04-02T06:44:59.894Z,5.70
2023-04-02T06:47:53.703Z,5.80
2023-04-02T06:50:39.612Z,7.10
2023-04-02T06:53:23.429Z,10.20
2023-04-02T06:56:02.122Z,6.50
2023-04-02T06:58:36.547Z,5.70
2023-04-02T07:01:13.301Z,7.80
2023-04-02T07:03:47.838Z,6.10
2023-04-02T07:06:26.135Z,7.40
2023-04-02T07:09:01.110Z,3.30
2023-04-02T07:11:34.111Z,12.30
2023-04-02T07:14:10.355Z,5.30
2023-04-02T07:16:43.859Z,5.70
2023-04-02T07:19:21.875Z,4.20
2023-04-02T07:21:57.763Z,8.80
2023-04-02T07:24:32.921Z,7.70
2023-04-02T07:27:05.104Z,7.00
2023-04-02T07:29:42.770Z,8.00
2023-04-02T07:32:15.612Z,7.50
2023-04-02T07:34:49.028Z,9.50
2023-04-02T07:37:21.102Z,5.50
2023-04-02T07:39:53.290Z,9.30
2023-04-02T07:42:25.916Z,5.60
2023-04-02T07:44:57.975Z,8.40
2023-04-02T07:47:31.056Z,5.10
2023-04-02T07:50:03.901Z,9.00
2023-04-02T07:52:38.126Z,6.70
2023-04-02T07:55:13.955Z,10.30
2023-04-02T07:57:51.816Z,5.70
2023-04-02T08:00:25.431Z,6.80
2023-04-02T08:02:57.795Z,7.10
2023-04-02T08:05:29.995Z,7.10
2023-04-02T08:08:02.037Z,7.40
2023-04-02T08:10:34.633Z,7.80
2023-04-02T08:13:07.591Z,7.40
2023-04-02T08:15:39.954Z,10.10
2023-04-02T08:18:12.862Z,9.60
2023-04-02T08:20:45.126Z,10.50
2023-04-02T08:23:18.224Z,10.90
2023-04-02T08:25:51.471Z,9.60
2023-04-02T08:28:24.331Z,10.70
2023-04-02T08:30:56.535Z,10.40
2023-04-02T08:33:28.746Z,11.90
2023-04-02T08:36:01.067Z,13.30
2023-04-02T08:38:33.170Z,13.00
2023-04-02T08:41:07.423Z,12.50
2023-04-02T08:44:09.776Z,14.00
2023-04-02T08:46:49.503Z,15.50
2023-04-02T08:49:30.378Z,14.20
2023-04-02T08:52:02.593Z,15.00
2023-04-02T08:54:38.212Z,17.40
2023-04-02T08:57:18.770Z,18.50
2023-04-02T08:59:59.331Z,12.50
2023-04-02T09:02:40.737Z,11.50
2023-04-02T09:05:24.459Z,13.20
2023-04-02T09:08:00.422Z,11.20
2023-04-02T09:10:41.802Z,11.90
2023-04-02T09:13:21.537Z,16.90
2023-04-02T09:15:59.193Z,14.00
2023-04-02T09:18:34.051Z,12.70
2023-04-02T09:21:19.877Z,12.50
2023-04-02T09:23:52.691Z,24.30
2023-04-02T09:26:27.551Z,24.00
2023-04-02T09:29:20.651Z,18.60
2023-04-02T09:32:01.075Z,21.50
2023-04-02T09:34:35.202Z,12.00
2023-04-02T09:37:15.733Z,10.90
2023-04-02T09:39:48.371Z,14.00
2023-04-02T09:42:35.238Z,19.40
2023-04-02T09:45:21.946Z,18.20
2023-04-02T09:47:56.941Z,25.10
2023-04-02T09:50:34.016Z,18.80
2023-04-02T09:53:31.422Z,14.50
2023-04-02T09:56:15.859Z,10.50
2023-04-02T09:59:03.860Z,8.20
2023-04-02T10:01:38.956Z,9.00
2023-04-02T10:04:39.197Z,9.20
2023-04-02T10:07:34.708Z,7.20
2023-04-02T10:10:20.526Z,11.20
2023-04-02T10:12:59.584Z,9.40
2023-04-02T10:15:36.973Z,10.20
2023-04-02T10:18:16.129Z,12.30
2023-04-02T10:20:51.526Z,8.60
2023-04-02T10:23:30.268Z,9.00
2023-04-02T10:26:14.851Z,9.80
2023-04-02T10:29:03.972Z,9.00
2023-04-02T10:31:53.058Z,9.00
2023-04-02T10:34:31.733Z,9.90
2023-04-02T10:37:15.337Z,11.50
2023-04-02T10:39:52.601Z,8.00
2023-04-02T10:42:32.955Z,5.90
2023-04-02T10:45:18.478Z,8.00
2023-04-02T10:48:02.144Z,7.20
2023-04-02T10:50:44.993Z,6.90
2023-04-02T10:53:20.645Z,7.80
2023-04-02T10:55:57.730Z,9.10
2023-04-02T10:58:32.965Z,7.60
2023-04-02T11:01:11.400Z,6.00
2023-04-02T11:03:49.020Z,5.20
2023-04-02T11:06:25.911Z,5.30
2023-04-02T11:09:03.349Z,5.10
2023-04-02T11:11:41.406Z,6.40
2023-04-02T11:14:20.414Z,5.60
2023-04-02T11:16:54.543Z,5.90
2023-04-02T11:19:32.737Z,5.70
2023-04-02T11:22:14.583Z,15.70
2023-04-02T11:24:49.877Z,15.60
2023-04-02T11:27:27.153Z,8.80
2023-04-02T11:30:07.271Z,5.90
2023-04-02T11:32:42.823Z,7.10
2023-04-02T11:35:37.639Z,5.50
2023-04-02T11:38:52.334Z,6.30
2023-04-02T11:42:06.718Z,12.50
2023-04-02T11:44:39.020Z,9.30
2023-04-02T11:47:22.660Z,9.90
2023-04-02T11:50:07.136Z,8.30
2023-04-02T11:52:55.023Z,9.60
2023-04-02T11:55:31.667Z,13.40
2023-04-02T11:58:39.866Z,21.90
2023-04-02T12:01:36.221Z,17.50
2023-04-02T12:04:50.205Z,15.60
2023-04-02T12:07:55.253Z,7.90
2023-04-02T12:10:34.528Z,9.10
2023-04-02T12:13:17.975Z,11.20
2023-04-02T12:15:53.267Z,13.30
2023-04-02T12:18:26.740Z,13.50
2023-04-02T12:20:59.718Z,17.20
2023-04-02T12:23:36.581Z,16.20
2023-04-02T12:26:25.825Z,19.90
2023-04-02T12:29:15.202Z,20.00
2023-04-02T12:31:49.238Z,27.10
2023-04-02T12:34:23.564Z,31.00
2023-04-02T12:36:59.686Z,25.70
2023-04-02T12:39:33.806Z,17.70
2023-04-02T12:42:06.781Z,16.20
2023-04-02T12:44:39.312Z,13.00
2023-04-02T12:47:14.919Z,35.70
2023-04-02T12:49:48.507Z,27.30
2023-04-02T12:52:23.054Z,21.90
2023-04-02T12:54:58.414Z,17.80
2023-04-02T12:57:39.804Z,12.00
2023-04-02T13:00:44.496Z,13.00
2023-04-02T13:03:23.074Z,7.70
2023-04-02T13:05:57.798Z,8.20
2023-04-02T13:08:33.343Z,8.80
2023-04-02T13:11:07.511Z,7.10
2023-04-02T13:13:41.482Z,7.10
2023-04-02T13:16:29.911Z,6.60
2023-04-02T13:21:54.922Z,7.20
2023-04-02T13:24:28.780Z,10.90
2023-04-02T13:27:03.058Z,10.40
2023-04-02T13:29:36.022Z,10.30
2023-04-02T13:32:13.437Z,9.60
2023-04-02T13:34:45.512Z,10.20
2023-04-02T13:37:17.580Z,12.80
2023-04-02T13:39:49.788Z,13.20
2023-04-02T13:42:22.083Z,18.30
2023-04-02T13:44:54.730Z,12.40
2023-04-02T13:47:27.058Z,9.60
2023-04-02T13:49:59.107Z,9.30
2023-04-02T13:52:31.727Z,17.90
2023-04-02T13:55:04.402Z,19.50
2023-04-02T13:57:36.727Z,11.90
2023-04-02T14:00:11.429Z,7.00
2023-04-02T14:02:47.564Z,7.60
2023-04-02T14:08:10.329Z,7.80
2023-04-02T14:10:58.817Z,8.80
2023-04-02T14:16:37.019Z,8.00
2023-04-02T14:19:29.695Z,7.70
2023-04-02T14:22:13.785Z,8.50
2023-04-02T14:24:56.140Z,9.00
2023-04-02T14:27:40.395Z,8.70
2023-04-02T14:30:22.341Z,7.30
2023-04-02T14:33:05.566Z,8.30
2023-04-02T14:35:40.046Z,8.30
2023-04-02T14:38:22.644Z,8.80
2023-04-02T14:41:00.937Z,9.00
2023-04-02T14:43:40.867Z,7.50
2023-04-02T14:46:13.148Z,8.10
2023-04-02T14:48:53.102Z,8.60
2023-04-02T14:51:32.000Z,7.40
2023-04-02T14:54:10.746Z,8.50
2023-04-02T14:56:51.093Z,7.20
2023-04-02T14:59:34.420Z,7.60
2023-04-02T15:02:15.646Z,7.20
2023-04-02T15:04:52.372Z,6.20
2023-04-02T15:07:30.177Z,7.00
2023-04-02T15:10:10.112Z,7.40
2023-04-02T15:12:45.192Z,8.10
2023-04-02T15:15:38.932Z,5.80
2023-04-02T15:18:16.337Z,8.10
2023-04-02T15:20:56.329Z,7.40
2023-04-02T15:23:40.483Z,7.30
2023-04-02T15:26:21.873Z,7.40
2023-04-02T15:29:02.355Z,6.80
2023-04-02T15:31:36.006Z,7.60
2023-04-02T15:34:26.804Z,7.20
2023-04-02T15:37:08.618Z,9.40
2023-04-02T15:39:49.772Z,9.00
2023-04-02T15:42:26.347Z,7.70
2023-04-02T15:45:24.049Z,7.80
2023-04-02T15:48:21.770Z,8.00
2023-04-02T15:51:05.100Z,8.50
2023-04-02T15:53:52.563Z,9.30
2023-04-02T15:56:41.569Z,11.00
2023-04-02T16:02:11.763Z,9.40
2023-04-02T16:04:52.993Z,8.80
2023-04-02T16:07:58.877Z,8.40
2023-04-02T16:10:41.821Z,13.20
2023-04-02T16:13:20.802Z,16.60
2023-04-02T16:15:56.723Z,12.80
2023-04-02T16:18:39.560Z,12.20
2023-04-02T16:21:17.176Z,24.20
2023-04-02T16:23:49.752Z,43.10
2023-04-02T16:26:33.331Z,40.70
2023-04-02T16:29:15.078Z,36.70
2023-04-02T16:31:55.075Z,23.50
2023-04-02T16:34:40.430Z,25.80
2023-04-02T16:37:20.516Z,27.60
2023-04-02T16:40:00.130Z,38.60
2023-04-02T16:42:43.573Z,42.10
2023-04-02T16:45:32.305Z,32.50
2023-04-02T16:48:15.632Z,32.40
2023-04-02T16:51:01.553Z,25.60
2023-04-02T16:53:58.318Z,23.90
2023-04-02T16:56:51.785Z,19.10
2023-04-02T16:59:33.863Z,13.10
2023-04-02T17:02:23.326Z,16.70
2023-04-02T17:05:03.909Z,12.10
2023-04-02T17:07:46.059Z,10.50
2023-04-02T17:10:30.352Z,8.00
2023-04-02T17:13:17.861Z,9.90
2023-04-02T17:15:56.213Z,8.70
2023-04-02T17:18:28.340Z,9.00
2023-04-02T17:21:06.197Z,6.00
2023-04-02T17:23:55.719Z,6.20
2023-04-02T17:26:31.330Z,6.00
2023-04-02T17:29:08.478Z,5.30
2023-04-02T17:31:42.330Z,4.80
2023-04-02T17:34:18.154Z,5.40
2023-04-02T17:36:58.404Z,5.10
2023-04-02T17:39:39.480Z,4.90
2023-04-02T17:42:22.209Z,5.30
2023-04-02T17:45:09.158Z,5.00
2023-04-02T17:47:52.576Z,5.30
2023-04-02T17:50:46.228Z,5.60
2023-04-02T17:53:31.883Z,5.90
2023-04-02T17:56:17.562Z,5.40
2023-04-02T17:59:13.807Z,5.80
2023-04-02T18:01:55.419Z,5.80
2023-04-02T18:04:42.938Z,4.70
2023-04-02T18:07:31.916Z,6.00
2023-04-02T18:10:14.404Z,5.60
2023-04-02T18:12:57.313Z,5.00
2023-04-02T18:15:59.375Z,5.70
2023-04-02T18:18:51.551Z,7.70
2023-04-02T18:21:31.759Z,9.30
2023-04-02T18:24:22.196Z,8.60
2023-04-02T18:27:06.315Z,10.10
2023-04-02T18:29:46.677Z,10.20
2023-04-02T18:32:36.208Z,11.50
2023-04-02T18:35:21.673Z,10.90
2023-04-02T18:38:12.818Z,9.20
2023-04-02T18:40:59.856Z,7.70
2023-04-02T18:43:43.465Z,7.40
2023-04-02T18:46:29.772Z,7.40
2023-04-02T18:49:07.091Z,6.60
2023-04-02T18:51:41.458Z,8.40
2023-04-02T18:54:23.852Z,7.80
2023-04-02T18:56:56.676Z,6.10
2023-04-02T18:59:39.650Z,5.30
2023-04-02T19:02:33.004Z,5.80
2023-04-02T19:05:23.303Z,4.20
2023-04-02T19:08:01.112Z,5.40
2023-04-02T19:10:35.901Z,5.10
2023-04-02T19:13:14.631Z,4.60
2023-04-02T19:16:07.872Z,5.20
2023-04-02T19:18:54.787Z,5.00
2023-04-02T19:21:36.956Z,4.90
2023-04-02T19:24:28.477Z,5.70
2023-04-02T19:27:06.663Z,4.80
2023-04-02T19:29:52.777Z,4.90
2023-04-02T19:32:33.817Z,4.80
2023-04-02T19:35:17.885Z,4.40
2023-04-02T19:38:00.716Z,3.60
2023-04-02T19:40:43.707Z,5.60
2023-04-02T19:43:16.615Z,6.00
2023-04-02T19:45:50.804Z,5.80
2023-04-02T19:48:26.763Z,4.80
2023-04-02T19:50:59.282Z,4.70
2023-04-02T19:53:31.817Z,6.30
2023-04-02T19:56:04.068Z,5.20
2023-04-02T19:58:37.337Z,4.60
2023-04-02T20:01:09.786Z,4.10
2023-04-02T20:03:42.447Z,4.40
2023-04-02T20:06:15.066Z,4.90
2023-04-02T20:08:47.980Z,4.80
2023-04-02T20:11:20.262Z,3.90
2023-04-02T20:13:52.960Z,4.30
2023-04-02T20:16:26.002Z,4.80
2023-04-02T20:18:58.242Z,3.90
2023-04-02T20:21:35.027Z,4.20
2023-04-02T20:24:08.008Z,4.60
2023-04-02T20:26:40.430Z,4.90
2023-04-02T20:29:12.628Z,5.00
2023-04-02T20:31:44.666Z,5.00
2023-04-02T20:34:17.291Z,5.30
2023-04-02T20:36:49.691Z,6.00
2023-04-02T20:39:22.018Z,6.00
2023-04-02T20:41:54.239Z,6.00
2023-04-02T20:44:26.978Z,5.90
2023-04-02T20:46:59.381Z,5.80
2023-04-02T20:49:31.555Z,4.50
2023-04-02T20:52:03.797Z,5.20
2023-04-02T20:54:35.950Z,4.30
2023-04-02T20:57:08.136Z,3.70
2023-04-02T20:59:40.509Z,7.00
2023-04-02T21:02:14.037Z,6.40
2023-04-02T21:04:46.524Z,6.00
2023-04-02T21:07:18.800Z,8.10
2023-04-02T21:09:51.942Z,7.60
2023-04-02T21:12:25.264Z,6.70
2023-04-02T21:15:01.034Z,12.10
2023-04-02T21:17:35.491Z,12.50
2023-04-02T21:20:10.156Z,12.20
2023-04-02T21:22:42.921Z,16.50
2023-04-02T21:25:15.710Z,12.80
2023-04-02T21:27:47.922Z,13.40
2023-04-02T21:30:20.412Z,16.60
2023-04-02T21:32:52.837Z,13.20
2023-04-02T21:35:25.392Z,17.90
2023-04-02T21:37:57.503Z,19.30
2023-04-02T21:40:29.729Z,16.10
2023-04-02T21:43:01.898Z,18.70
2023-04-02T21:45:34.565Z,18.00
2023-04-02T21:48:07.444Z,18.30
2023-04-02T21:50:39.660Z,17.60
2023-04-02T21:53:11.735Z,15.90
2023-04-02T21:55:43.789Z,22.40
2023-04-02T21:58:15.862Z,17.10
2023-04-02T22:00:48.472Z,19.10
2023-04-02T22:03:31.024Z,15.40
2023-04-02T22:06:12.149Z,15.70
2023-04-02T22:08:46.111Z,14.10
2023-04-02T22:11:20.026Z,17.40
2023-04-02T22:13:52.653Z,11.60
2023-04-02T22:16:26.736Z,14.00
2023-04-02T22:19:01.971Z,11.20
2023-04-02T22:21:34.668Z,8.70
2023-04-02T22:24:09.702Z,8.70
2023-04-02T22:26:42.660Z,7.20
2023-04-02T22:29:14.945Z,8.10
2023-04-02T22:31:47.184Z,7.50
2023-04-02T22:34:19.200Z,6.20
2023-04-02T22:36:53.234Z,7.80
2023-04-02T22:39:25.273Z,8.00
2023-04-02T22:41:57.375Z,7.90
2023-04-02T22:44:29.386Z,9.20
2023-04-02T22:47:01.408Z,8.80
2023-04-02T22:49:33.451Z,7.90
2023-04-02T22:52:07.009Z,7.50
2023-04-02T22:54:39.017Z,6.40
2023-04-02T22:57:11.471Z,6.50
2023-04-02T22:59:43.466Z,5.20
2023-04-02T23:02:16.088Z,5.60
2023-04-02T23:04:48.208Z,5.20
2023-04-02T23:07:20.224Z,5.50
2023-04-02T23:09:52.288Z,5.70
2023-04-02T23:12:24.265Z,5.10
2023-04-02T23:14:58.179Z,6.30
2023-04-02T23:17:30.382Z,5.60
2023-04-02T23:20:02.440Z,5.50
2023-04-02T23:22:36.948Z,5.50
2023-04-02T23:25:09.712Z,4.30
2023-04-02T23:27:41.964Z,5.50
2023-04-02T23:30:14.661Z,4.40
2023-04-02T23:32:46.790Z,3.90
2023-04-02T23:35:18.835Z,5.10
2023-04-02T23:37:52.716Z,4.30
2023-04-02T23:40:24.750Z,4.60
2023-04-02T23:42:56.774Z,3.60
2023-04-02T23:45:28.768Z,4.40
2023-04-02T23:48:00.875Z,4.00
2023-04-02T23:50:33.066Z,3.80
2023-04-02T23:53:05.060Z,4.40
2023-04-02T23:55:37.057Z,3.60
2023-04-02T23:58:09.219Z,3.20
